Time;durP1;ratioP1;P1;durP2;ratioP2;P2;SDS_P1;SDS_P2;PMS_P1;PMS_P2;Temp;Humidity;BMP_temperature;BMP_pressure;BME280_temperature;BME280_humidity;BME280_pressure;Samples;Min_cycle;Max_cycle;Signal;HPM_P1;HPM_P2
2023/09/05 00:02:14;;;;;;;;;9.25;6.00;;;;;25.10;49.04;101128.94;4935027;28;45419;-40
2023/09/05 00:04:42;;;;;;;;;6.80;6.60;;;;;25.07;48.63;101112.22;4937346;28;46412;-45
2023/09/05 00:07:09;;;;;;;;;5.00;5.00;;;;;25.07;49.05;101115.81;4937844;28;45442;-45
2023/09/05 00:09:34;;;;;;;;;5.40;5.40;;;;;25.07;49.52;101120.38;4937907;28;45462;-40
2023/09/05 00:12:00;;;;;;;;;5.00;4.25;;;;;25.04;49.24;101124.41;4938318;28;45363;-40
2023/09/05 00:14:25;;;;;;;;;7.50;6.00;;;;;25.00;49.02;101125.13;4958687;28;45377;-44
2023/09/05 00:16:50;;;;;;;;;6.00;6.00;;;;;25.03;49.31;101136.38;4996555;28;45295;-44
2023/09/05 00:19:16;;;;;;;;;7.25;5.00;;;;;24.93;49.06;101125.22;5036799;28;45313;-41
2023/09/05 00:21:41;;;;;;;;;7.75;5.75;;;;;24.85;49.53;101118.22;5058493;28;45571;-40
2023/09/05 00:24:45;;;;;;;;;6.00;6.00;;;;;24.96;48.85;101130.19;5058516;28;46219;-42
2023/09/05 00:27:11;;;;;;;;;7.00;5.00;;;;;24.93;49.51;101124.38;4976620;28;45414;-40
2023/09/05 00:29:38;;;;;;;;;7.00;6.00;;;;;24.94;49.23;101131.47;4976479;28;45468;-44
2023/09/05 00:32:04;;;;;;;;;5.80;5.80;;;;;24.87;49.48;101118.81;4976694;28;45489;-43
2023/09/05 00:34:32;;;;;;;;;9.00;8.00;;;;;24.91;49.43;101124.63;4976385;28;46978;-47
2023/09/05 00:36:58;;;;;;;;;5.00;4.20;;;;;24.89;49.25;101129.47;4976016;28;45530;-45
2023/09/05 00:39:31;;;;;;;;;9.00;6.20;;;;;24.79;49.33;101112.88;4976150;28;45922;-41
2023/09/05 00:41:57;;;;;;;;;7.60;7.60;;;;;24.82;49.87;101117.88;4960170;28;45388;-44
2023/09/05 00:44:25;;;;;;;;;7.60;7.60;;;;;24.82;49.67;101117.88;4975886;28;47133;-41
2023/09/05 00:46:55;;;;;;;;;6.20;6.20;;;;;24.73;49.32;101111.91;4976273;28;45548;-44
2023/09/05 00:49:27;;;;;;;;;6.60;6.00;;;;;24.77;49.95;101113.09;4976256;28;45470;-46
2023/09/05 00:51:55;;;;;;;;;7.00;7.00;;;;;24.75;49.85;101122.56;4976334;28;45375;-47
2023/09/05 00:54:21;;;;;;;;;8.60;7.80;;;;;24.70;49.61;101117.00;4976204;28;45500;-42
2023/09/05 00:56:48;;;;;;;;;6.00;6.00;;;;;24.71;49.56;101119.47;4977499;28;45425;-45
2023/09/05 00:59:13;;;;;;;;;8.80;6.80;;;;;24.68;50.18;101117.19;5057812;28;45334;-44
2023/09/05 01:01:38;;;;;;;;;8.25;7.00;;;;;24.60;49.51;101115.63;5057986;28;45354;-43
2023/09/05 01:04:04;;;;;;;;;5.00;5.00;;;;;24.61;50.34;101122.75;5057698;28;45420;-47
2023/09/05 01:07:12;;;;;;;;;11.00;8.00;;;;;24.57;49.76;101118.84;5057424;28;45433;-45
2023/09/05 01:09:40;;;;;;;;;5.80;5.20;;;;;24.56;49.80;101125.31;5057824;28;45482;-44
2023/09/05 01:12:07;;;;;;;;;8.00;6.40;;;;;24.50;49.68;101112.66;5057748;28;45589;-41
2023/09/05 01:14:32;;;;;;;;;5.00;5.00;;;;;24.45;49.90;101112.50;5056651;28;46395;-42
2023/09/05 01:17:01;;;;;;;;;7.00;4.75;;;;;24.46;49.95;101114.16;5057172;28;45593;-46
2023/09/05 01:19:29;;;;;;;;;7.20;6.60;;;;;24.45;49.93;101107.06;5057445;28;45391;-45
2023/09/05 01:21:55;;;;;;;;;8.80;6.20;;;;;24.43;49.33;101119.22;5057721;28;45343;-42
2023/09/05 01:24:21;;;;;;;;;9.50;6.50;;;;;24.36;50.05;101119.28;5057280;28;45347;-40
2023/09/05 01:26:52;;;;;;;;;8.40;6.00;;;;;24.32;50.63;101121.63;5057088;28;45424;-40
2023/09/05 01:29:29;;;;;;;;;6.80;6.80;;;;;24.33;49.78;101117.03;5056008;28;45491;-41
2023/09/05 01:31:56;;;;;;;;;6.80;6.80;;;;;24.30;50.49;101112.88;5057010;28;45390;-41
2023/09/05 01:34:22;;;;;;;;;6.20;5.60;;;;;24.27;50.32;101110.63;5057194;28;46359;-42
2023/09/05 01:36:47;;;;;;;;;7.00;6.00;;;;;24.29;50.21;101122.09;5057054;28;45715;-41
2023/09/05 01:39:13;;;;;;;;;7.50;7.50;;;;;24.27;50.04;101118.78;5057186;28;49416;-44
2023/09/05 01:41:39;;;;;;;;;7.40;5.40;;;;;24.24;50.06;101112.97;5057578;28;45299;-40
2023/09/05 01:44:04;;;;;;;;;8.00;6.00;;;;;24.21;49.79;101114.25;5056899;28;46674;-43
2023/09/05 01:46:29;;;;;;;;;10.00;6.50;;;;;24.17;50.18;101115.75;5056828;28;45394;-40
2023/09/05 01:48:55;;;;;;;;;7.25;7.25;;;;;24.10;50.32;101102.25;5056877;28;45365;-43
2023/09/05 01:51:20;;;;;;;;;6.00;4.75;;;;;24.09;50.27;101108.72;5057208;28;45411;-41
2023/09/05 01:53:46;;;;;;;;;6.00;6.00;;;;;24.06;50.38;101105.63;5056665;28;46556;-42
2023/09/05 01:56:11;;;;;;;;;8.75;8.25;;;;;24.01;50.32;101102.78;5056971;28;45470;-42
2023/09/05 01:58:36;;;;;;;;;6.75;5.25;;;;;23.98;50.68;101103.25;5057020;28;45304;-43
2023/09/05 02:01:03;;;;;;;;;10.00;6.25;;;;;23.89;50.44;101083.66;5056864;28;45334;-41
2023/09/05 02:03:28;;;;;;;;;6.40;6.40;;;;;23.86;50.42;101073.28;5056791;28;46011;-42
2023/09/05 02:05:53;;;;;;;;;6.50;6.50;;;;;23.94;50.79;101092.00;5056803;28;45182;-39
2023/09/05 02:08:19;;;;;;;;;7.75;5.25;;;;;23.95;50.93;101096.38;5056765;28;45367;-47
2023/09/05 02:10:45;;;;;;;;;6.80;5.80;;;;;23.95;50.49;101098.25;5056873;28;45467;-40
2023/09/05 02:13:12;;;;;;;;;7.50;7.00;;;;;23.89;50.80;101089.97;5056584;28;45426;-41
2023/09/05 02:15:38;;;;;;;;;6.00;5.60;;;;;23.81;50.59;101084.00;5056642;28;45311;-41
2023/09/05 02:18:07;;;;;;;;;7.50;5.75;;;;;23.81;50.81;101087.53;5056634;28;45359;-47
2023/09/05 02:20:32;;;;;;;;;8.20;8.20;;;;;23.78;50.85;101081.72;5056884;28;45470;-39
2023/09/05 02:22:57;;;;;;;;;8.00;6.75;;;;;23.77;50.62;101080.06;5056365;28;45953;-41
2023/09/05 02:25:23;;;;;;;;;7.00;7.00;;;;;23.65;50.87;101072.66;5056005;28;45500;-46
2023/09/05 02:27:48;;;;;;;;;6.25;6.00;;;;;23.66;50.87;101078.91;5056352;28;45405;-42
2023/09/05 02:30:13;;;;;;;;;8.00;5.25;;;;;23.68;50.69;101082.22;5056634;28;45344;-45
2023/09/05 02:32:39;;;;;;;;;6.75;5.25;;;;;23.65;51.37;101086.25;5056146;28;45308;-44
2023/09/05 02:35:05;;;;;;;;;9.50;8.00;;;;;23.64;51.11;101097.31;5056401;28;45188;-45
2023/09/05 02:37:31;;;;;;;;;6.60;6.60;;;;;23.60;51.30;101082.50;5055921;28;45391;-44
2023/09/05 02:39:56;;;;;;;;;7.25;7.25;;;;;23.60;51.71;101079.78;5056392;28;45222;-46
2023/09/05 02:42:21;;;;;;;;;6.00;6.00;;;;;23.62;51.76;101092.06;5056074;28;45349;-46
2023/09/05 02:44:51;;;;;;;;;5.75;5.75;;;;;23.58;51.43;101090.03;5055859;28;49178;-46
2023/09/05 02:47:16;;;;;;;;;9.40;7.40;;;;;23.57;51.52;101091.09;5056057;28;45691;-41
2023/09/05 02:49:42;;;;;;;;;6.25;6.25;;;;;23.31;51.98;101046.88;5055108;28;45499;-43
2023/09/05 02:52:07;;;;;;;;;10.25;7.50;;;;;23.54;51.19;101078.78;5056210;28;45447;-46
2023/09/05 02:54:32;;;;;;;;;8.00;6.00;;;;;23.53;51.32;101089.88;5056084;28;45438;-47
2023/09/05 02:56:58;;;;;;;;;7.50;7.50;;;;;;;;5055968;28;45414;-46
2023/09/05 02:59:23;;;;;;;;;7.75;6.75;;;;;23.43;51.92;101087.69;5056213;28;45268;-44
2023/09/05 03:01:48;;;;;;;;;8.00;6.50;;;;;23.44;51.96;101078.47;5055633;28;47098;-43
2023/09/05 03:04:14;;;;;;;;;9.50;6.50;;;;;23.45;51.81;101087.47;5055938;28;45292;-44
2023/09/05 03:06:40;;;;;;;;;8.25;7.00;;;;;23.44;51.94;101083.09;5055932;28;45428;-41
2023/09/05 03:09:06;;;;;;;;;7.40;7.40;;;;;23.44;51.98;101083.09;5055985;28;45485;-46
2023/09/05 03:11:32;;;;;;;;;9.00;8.00;;;;;23.36;51.95;101084.19;5055642;28;45412;-41
2023/09/05 03:13:57;;;;;;;;;7.00;6.50;;;;;23.37;51.61;101092.09;5055794;28;45260;-44
2023/09/05 03:16:23;;;;;;;;;8.00;8.00;;;;;23.33;52.01;101074.59;5055666;28;45331;-48
2023/09/05 03:18:49;;;;;;;;;9.25;8.00;;;;;23.35;51.95;101080.66;5055900;28;45427;-43
2023/09/05 03:21:15;;;;;;;;;9.60;8.80;;;;;23.32;52.16;101074.84;5055588;28;47443;-46
2023/09/05 03:23:40;;;;;;;;;6.50;6.00;;;;;23.30;52.18;101069.63;5055862;28;45442;-46
2023/09/05 03:26:05;;;;;;;;;11.50;8.00;;;;;23.26;52.53;101075.72;5055668;28;45319;-46
2023/09/05 03:28:39;;;;;;;;;9.75;8.50;;;;;23.12;52.29;101067.69;5055774;28;45363;-43
2023/09/05 03:31:04;;;;;;;;;8.00;7.60;;;;;23.16;52.47;101071.63;5055125;28;46255;-45
2023/09/05 03:33:30;;;;;;;;;9.50;8.75;;;;;23.13;52.65;101068.50;5055366;28;45499;-42
2023/09/05 03:35:55;;;;;;;;;7.00;6.50;;;;;23.15;52.16;101064.53;5055612;28;45774;-43
2023/09/05 03:38:20;;;;;;;;;6.50;6.50;;;;;23.15;52.51;101071.84;5056361;28;45271;-41
2023/09/05 03:40:47;;;;;;;;;8.25;8.25;;;;;23.14;52.43;101075.63;5059139;28;45549;-41
2023/09/05 03:43:12;;;;;;;;;9.40;6.80;;;;;23.10;52.97;101066.25;5058769;28;45426;-42
2023/09/05 03:45:38;;;;;;;;;7.00;6.25;;;;;23.12;52.73;101073.13;5058990;28;45419;-47
2023/09/05 03:48:04;;;;;;;;;6.75;5.75;;;;;23.11;52.36;101059.78;5058925;28;45522;-43
2023/09/05 03:50:29;;;;;;;;;7.00;7.00;;;;;23.05;52.36;101050.66;5058673;28;46189;-41
2023/09/05 03:52:54;;;;;;;;;3.75;3.75;;;;;23.07;52.75;101053.97;5058188;28;45339;-45
2023/09/05 03:55:20;;;;;;;;;6.50;6.50;;;;;23.00;53.03;101053.16;5058827;28;45338;-41
2023/09/05 03:57:46;;;;;;;;;9.75;9.75;;;;;22.97;52.57;101048.22;5058903;28;45308;-40
2023/09/05 04:00:11;;;;;;;;;9.25;7.50;;;;;22.95;52.89;101036.72;5058772;28;46520;-40
2023/09/05 04:02:36;;;;;;;;;7.25;7.00;;;;;22.92;53.09;101037.16;5058457;28;45342;-41
2023/09/05 04:05:02;;;;;;;;;7.00;5.25;;;;;22.96;53.01;101046.53;5057578;28;45727;-41
2023/09/05 04:07:27;;;;;;;;;10.50;7.75;;;;;22.89;53.08;101045.75;5058812;28;45232;-42
2023/09/05 04:09:53;;;;;;;;;11.00;9.25;;;;;22.91;52.55;101038.22;5058166;28;47173;-40
2023/09/05 04:12:18;;;;;;;;;7.75;6.00;;;;;22.89;53.36;101052.00;5058552;28;45380;-45
2023/09/05 04:14:44;;;;;;;;;10.25;6.25;;;;;22.66;53.24;101001.03;5058540;28;45606;-41
2023/09/05 04:17:09;;;;;;;;;9.75;8.75;;;;;22.82;53.57;101039.53;5058703;28;45722;-43
2023/09/05 04:19:34;;;;;;;;;7.25;7.25;;;;;22.83;53.29;101027.63;5058296;28;46250;-41
2023/09/05 04:21:59;;;;;;;;;8.75;8.75;;;;;22.84;53.31;101032.84;5058193;28;45797;-43
2023/09/05 04:24:25;;;;;;;;;23.50;20.75;;;;;22.80;53.50;101039.75;5057005;28;45424;-40
2023/09/05 04:26:50;;;;;;;;;13.50;13.50;;;;;22.76;53.37;101051.25;5058167;28;45458;-42
2023/09/05 04:29:16;;;;;;;;;9.00;7.00;;;;;22.66;53.86;101054.44;5058038;28;46019;-47
2023/09/05 04:31:42;;;;;;;;;7.00;7.00;;;;;22.65;53.80;101058.22;5058007;28;45477;-42
2023/09/05 04:34:07;;;;;;;;;8.00;8.00;;;;;22.60;53.99;101055.34;5058076;28;45357;-43
2023/09/05 04:36:34;;;;;;;;;7.25;7.25;;;;;22.57;54.04;101066.59;5058049;28;45411;-42
2023/09/05 04:39:01;;;;;;;;;6.20;5.00;;;;;22.50;54.57;101069.38;5057694;28;45577;-39
2023/09/05 04:41:26;;;;;;;;;7.20;7.20;;;;;22.52;54.50;101069.16;5058216;28;45418;-45
2023/09/05 04:43:51;;;;;;;;;10.50;7.25;;;;;22.48;54.25;101085.00;5057135;28;45392;-45
2023/09/05 04:46:17;;;;;;;;;7.00;5.75;;;;;22.42;54.64;101078.59;5057534;28;45380;-43
2023/09/05 04:48:42;;;;;;;;;9.00;9.00;;;;;22.36;54.83;101084.84;5057767;28;46665;-43
2023/09/05 04:51:07;;;;;;;;;8.50;8.50;;;;;22.34;54.75;101096.97;5056508;28;45425;-41
2023/09/05 04:53:33;;;;;;;;;8.00;4.75;;;;;22.29;55.34;101096.75;5057945;28;45275;-43
2023/09/05 04:56:00;;;;;;;;;10.00;9.25;;;;;22.31;55.13;101105.53;5058234;28;45479;-41
2023/09/05 04:58:29;;;;;;;;;9.20;7.60;;;;;22.23;54.81;101095.75;5057652;28;45480;-42
2023/09/05 05:01:04;;;;;;;;;6.80;6.40;;;;;22.26;55.04;101094.50;5057787;28;45331;-43
2023/09/05 05:03:33;;;;;;;;;8.75;8.75;;;;;22.35;55.00;101112.19;5057537;28;45414;-44
2023/09/05 05:05:59;;;;;;;;;9.00;7.50;;;;;22.39;55.52;101116.13;5058006;28;45410;-44
2023/09/05 05:08:24;;;;;;;;;10.75;8.50;;;;;22.33;55.26;101111.56;5057542;28;46276;-44
2023/09/05 05:10:50;;;;;;;;;12.75;9.75;;;;;22.32;55.35;101118.84;5057697;28;45344;-41
2023/09/05 05:13:16;;;;;;;;;12.75;9.75;;;;;22.33;55.10;101115.13;5057845;28;45836;-42
2023/09/05 05:15:43;;;;;;;;;9.50;9.50;;;;;22.36;54.81;101114.66;5056907;28;45905;-43
2023/09/05 05:18:08;;;;;;;;;9.00;8.20;;;;;22.42;55.04;101121.13;5057437;28;45479;-41
2023/09/05 05:20:34;;;;;;;;;8.50;8.50;;;;;22.42;54.98;101119.25;5057609;28;45331;-40
2023/09/05 05:22:59;;;;;;;;;10.50;10.50;;;;;22.46;55.89;101116.06;5057626;28;45757;-41
2023/09/05 05:25:24;;;;;;;;;12.00;10.75;;;;;22.50;55.09;101114.59;5057570;28;45385;-45
2023/09/05 05:27:50;;;;;;;;;10.50;9.25;;;;;22.52;55.10;101124.19;5038996;28;47982;-40
2023/09/05 05:30:15;;;;;;;;;11.75;10.25;;;;;22.57;55.07;101129.78;5057209;28;45373;-46
2023/09/05 05:32:40;;;;;;;;;8.00;8.00;;;;;22.60;54.54;101128.53;5057369;28;45316;-42
2023/09/05 05:35:07;;;;;;;;;9.00;9.00;;;;;22.61;55.05;101132.91;5057631;28;45353;-39
2023/09/05 05:37:32;;;;;;;;;12.50;10.00;;;;;22.60;54.84;101129.38;5056787;28;46484;-41
2023/09/05 05:39:57;;;;;;;;;11.25;8.75;;;;;22.63;54.71;101125.41;5057155;28;45543;-41
2023/09/05 05:42:23;;;;;;;;;9.00;8.25;;;;;22.62;54.26;101124.53;5057339;28;45458;-41
2023/09/05 05:44:48;;;;;;;;;10.50;8.25;;;;;22.62;54.71;101124.53;5057752;28;45494;-39
2023/09/05 05:47:13;;;;;;;;;10.00;8.25;;;;;22.67;54.67;101138.31;5056678;28;45456;-42
2023/09/05 05:49:38;;;;;;;;;8.50;7.00;;;;;22.61;54.61;101124.78;5057070;28;45442;-43
2023/09/05 05:52:04;;;;;;;;;9.75;8.25;;;;;22.66;54.82;101127.66;5056898;28;45502;-42
2023/09/05 05:54:29;;;;;;;;;8.50;7.00;;;;;22.71;54.80;101121.59;5057219;28;45519;-42
2023/09/05 05:56:56;;;;;;;;;9.50;7.75;;;;;22.69;54.31;101112.84;5056657;28;45597;-42
2023/09/05 05:59:23;;;;;;;;;10.80;9.00;;;;;22.80;54.33;101133.84;5056593;28;45318;-41
2023/09/05 06:01:50;;;;;;;;;8.80;7.20;;;;;22.83;53.92;101122.56;5056068;28;45436;-41
2023/09/05 06:04:16;;;;;;;;;8.25;7.00;;;;;22.86;53.86;101120.25;5057016;28;45289;-39
2023/09/05 06:06:45;;;;;;;;;8.50;8.50;;;;;22.82;53.65;101120.91;5056660;28;46289;-41
2023/09/05 06:09:11;;;;;;;;;8.00;8.00;;;;;22.91;53.73;101133.19;5056287;28;45461;-41
2023/09/05 06:11:36;;;;;;;;;6.25;6.25;;;;;22.91;54.07;101135.88;5055345;28;45300;-44
2023/09/05 06:14:02;;;;;;;;;10.00;7.25;;;;;22.88;54.25;101128.16;5056687;28;45312;-41
2023/09/05 06:16:28;;;;;;;;;8.75;8.75;;;;;22.83;54.47;101136.94;5056247;28;45508;-43
2023/09/05 06:18:53;;;;;;;;;11.25;9.00;;;;;22.83;54.53;101133.41;5056835;28;45911;-42
2023/09/05 06:21:19;;;;;;;;;7.25;7.25;;;;;22.86;54.31;101136.50;5056586;28;45878;-42
2023/09/05 06:23:44;;;;;;;;;7.00;7.00;;;;;22.91;54.02;101141.31;5055445;28;45458;-42
2023/09/05 06:26:09;;;;;;;;;8.00;8.00;;;;;22.89;54.11;101132.53;5056432;28;46559;-43
2023/09/05 06:28:35;;;;;;;;;8.00;7.00;;;;;22.93;54.00;101147.38;5056218;28;45359;-42
2023/09/05 06:31:00;;;;;;;;;10.50;8.00;;;;;23.01;54.10;101140.84;5056694;28;45324;-46
2023/09/05 06:33:26;;;;;;;;;10.50;8.00;;;;;23.03;53.77;101145.00;5056558;28;45434;-41
2023/09/05 06:35:52;;;;;;;;;9.75;7.50;;;;;23.11;53.73;101158.31;5055771;28;46787;-40
2023/09/05 06:38:21;;;;;;;;;8.60;7.00;;;;;23.14;53.51;101152.44;5056145;28;45336;-41
2023/09/05 06:40:46;;;;;;;;;11.20;6.80;;;;;23.19;53.31;101142.81;5056446;28;45414;-43
2023/09/05 06:43:11;;;;;;;;;10.75;7.75;;;;;23.30;53.21;101145.66;5056560;28;45454;-40
2023/09/05 06:45:37;;;;;;;;;7.25;7.25;;;;;23.27;52.93;101140.66;5056177;28;46249;-42
2023/09/05 06:48:03;;;;;;;;;10.50;8.00;;;;;23.30;53.21;101142.94;5055996;28;45392;-45
2023/09/05 06:50:28;;;;;;;;;9.60;8.00;;;;;23.35;53.04;101137.66;5056227;28;45435;-44
2023/09/05 06:52:53;;;;;;;;;5.75;4.75;;;;;23.42;52.34;101133.00;5056572;28;45372;-43
2023/09/05 06:55:19;;;;;;;;;10.00;8.50;;;;;23.48;52.62;101125.84;5054557;28;47985;-40
2023/09/05 06:57:45;;;;;;;;;10.75;8.00;;;;;23.55;52.65;101132.03;5056111;28;45329;-39
2023/09/05 07:00:11;;;;;;;;;9.00;8.20;;;;;23.70;52.12;101137.16;5056145;28;45454;-42
2023/09/05 07:02:37;;;;;;;;;8.50;6.75;;;;;23.79;51.95;101137.72;5056155;28;45484;-42
2023/09/05 07:05:03;;;;;;;;;9.50;8.00;;;;;23.95;52.07;101142.56;5055803;28;45620;-43
2023/09/05 07:07:28;;;;;;;;;10.25;6.75;;;;;24.14;51.14;101146.94;5055681;28;45545;-41
2023/09/05 07:09:53;;;;;;;;;9.25;7.00;;;;;24.68;50.71;101147.13;5056126;28;45413;-41
2023/09/05 07:12:19;;;;;;;;;8.75;8.00;;;;;25.19;49.69;101151.22;5056195;28;45492;-42
2023/09/05 07:14:44;;;;;;;;;8.00;6.00;;;;;25.46;48.47;101139.91;5058853;28;47317;-43
2023/09/05 07:17:09;;;;;;;;;8.25;7.75;;;;;25.83;47.60;101135.06;5058919;28;45300;-42
2023/09/05 07:19:36;;;;;;;;;7.00;7.00;;;;;26.27;46.72;101143.66;5059480;28;45436;-43
2023/09/05 07:22:02;;;;;;;;;10.00;7.00;;;;;26.79;45.92;101141.69;5059466;28;45437;-43
2023/09/05 07:24:27;;;;;;;;;9.75;7.75;;;;;27.38;44.91;101141.38;5058996;28;47104;-43
2023/09/05 07:26:53;;;;;;;;;8.50;7.50;;;;;28.21;43.37;101152.47;5059212;28;45504;-48
2023/09/05 07:29:18;;;;;;;;;10.50;7.75;;;;;29.02;42.07;101144.38;5059190;28;45405;-43
2023/09/05 07:31:44;;;;;;;;;9.75;8.75;;;;;29.91;40.61;101148.34;5059489;28;45366;-43
2023/09/05 07:34:09;;;;;;;;;8.00;6.50;;;;;30.62;39.33;101147.84;5059200;28;46060;-43
2023/09/05 07:36:36;;;;;;;;;6.00;6.00;;;;;31.23;37.96;101145.22;5059109;28;45675;-42
2023/09/05 07:39:04;;;;;;;;;5.20;5.20;;;;;31.52;36.93;101129.81;5059086;28;45384;-40
2023/09/05 07:41:33;;;;;;;;;7.60;7.60;;;;;31.75;36.51;101139.38;5059253;28;45443;-41
2023/09/05 07:43:59;;;;;;;;;6.80;6.00;;;;;32.22;35.79;101129.06;5058871;28;46211;-40
2023/09/05 07:46:24;;;;;;;;;10.25;8.00;;;;;32.62;34.84;101130.81;5058296;28;45391;-48
2023/09/05 07:48:49;;;;;;;;;7.75;7.75;;;;;33.17;34.26;101137.06;5053612;28;45417;-43
2023/09/05 07:51:15;;;;;;;;;8.50;8.00;;;;;33.66;34.43;101138.00;5056367;28;45450;-44
2023/09/05 07:53:48;;;;;;;;;7.00;6.50;;;;;34.19;32.71;101135.22;5058204;28;45604;-44
2023/09/05 07:56:14;;;;;;;;;7.20;7.00;;;;;34.77;32.42;101137.75;5058463;28;45383;-46
2023/09/05 07:58:39;;;;;;;;;6.50;6.50;;;;;35.39;31.18;101127.31;5058549;28;45506;-41
2023/09/05 08:01:09;;;;;;;;;8.75;8.75;;;;;35.80;31.09;101129.34;5058561;28;45442;-41
2023/09/05 08:03:36;;;;;;;;;8.80;7.80;;;;;36.33;29.69;101139.09;5057491;28;46368;-44
2023/09/05 08:06:01;;;;;;;;;6.60;5.80;;;;;36.99;29.07;101145.09;5058116;28;45349;-42
2023/09/05 08:08:26;;;;;;;;;6.50;6.00;;;;;37.33;28.27;101142.53;5058308;28;45336;-44
2023/09/05 08:10:52;;;;;;;;;6.75;6.00;;;;;37.60;28.86;101140.78;5058517;28;45406;-42
2023/09/05 08:13:17;;;;;;;;;7.25;7.25;;;;;37.62;28.15;101150.41;5058096;28;46006;-41
2023/09/05 08:15:44;;;;;;;;;9.50;5.25;;;;;37.61;28.14;101153.50;5057698;28;45387;-42
2023/09/05 08:18:11;;;;;;;;;10.00;7.20;;;;;37.80;27.65;101142.97;5057910;28;45502;-43
2023/09/05 08:20:39;;;;;;;;;8.00;6.80;;;;;37.90;27.91;101141.91;5058154;28;45422;-43
2023/09/05 08:23:04;;;;;;;;;7.80;6.80;;;;;37.72;27.81;101149.31;5057892;28;46488;-42
2023/09/05 08:25:30;;;;;;;;;8.25;5.00;;;;;37.57;28.88;101152.50;5057292;28;45401;-42
2023/09/05 08:27:56;;;;;;;;;8.50;7.25;;;;;37.32;28.39;101143.69;5058013;28;45820;-42
2023/09/05 08:30:24;;;;;;;;;8.50;6.75;;;;;37.15;28.53;101143.56;5057914;28;45327;-41
2023/09/05 08:32:52;;;;;;;;;9.80;9.80;;;;;36.77;28.47;101141.16;5057436;28;46568;-45
2023/09/05 08:35:17;;;;;;;;;5.80;5.40;;;;;36.41;29.87;101147.50;5057812;28;45361;-43
2023/09/05 08:37:43;;;;;;;;;7.50;5.00;;;;;36.55;29.44;101144.72;5057398;28;45315;-42
2023/09/05 08:40:09;;;;;;;;;8.50;8.50;;;;;36.46;30.17;101139.09;5058261;28;45367;-41
2023/09/05 08:42:36;;;;;;;;;6.75;6.75;;;;;36.63;29.63;101155.06;5057353;28;46547;-41
2023/09/05 08:45:11;;;;;;;;;10.60;8.00;;;;;36.63;29.86;101145.94;5057681;28;45473;-42
2023/09/05 08:47:37;;;;;;;;;8.40;8.00;;;;;36.53;29.56;101151.69;5057323;28;45421;-44
2023/09/05 08:50:04;;;;;;;;;7.75;7.75;;;;;36.51;29.05;101157.56;5057707;28;45386;-43
2023/09/05 08:52:33;;;;;;;;;9.40;9.40;;;;;36.69;29.20;101155.75;5057354;28;45437;-46
2023/09/05 08:54:59;;;;;;;;;6.80;6.80;;;;;36.64;29.11;101153.91;5057231;28;45292;-41
2023/09/05 08:57:25;;;;;;;;;8.75;7.50;;;;;36.65;29.07;101155.56;5057175;28;45574;-44
2023/09/05 08:59:52;;;;;;;;;9.20;5.60;;;;;37.13;28.72;101160.53;5057412;28;45424;-42
2023/09/05 09:02:17;;;;;;;;;7.00;7.00;;;;;37.50;28.74;101168.78;5057256;28;45418;-43
2023/09/05 09:04:53;;;;;;;;;6.50;5.00;;;;;38.28;27.35;101172.72;5055285;28;45450;-44
2023/09/05 09:07:24;;;;;;;;;7.20;7.20;;;;;39.36;26.75;101175.72;5057531;28;46046;-42
2023/09/05 09:09:50;;;;;;;;;10.80;10.80;;;;;40.54;25.32;101169.50;5057995;28;45494;-44
2023/09/05 09:12:15;;;;;;;;;9.00;8.75;;;;;41.61;24.17;101170.66;5057031;28;46557;-42
2023/09/05 09:14:40;;;;;;;;;8.00;8.00;;;;;42.54;23.11;101173.69;5057083;28;45336;-42
2023/09/05 09:17:06;;;;;;;;;9.25;8.25;;;;;43.04;21.80;101173.22;5057407;28;45312;-42
2023/09/05 09:19:32;;;;;;;;;7.50;7.50;;;;;43.40;21.62;101179.75;5057068;28;45418;-42
2023/09/05 09:22:03;;;;;;;;;10.75;8.00;;;;;43.73;21.62;101168.25;5056935;28;47431;-46
2023/09/05 09:24:36;;;;;;;;;9.20;7.20;;;;;44.66;21.36;101159.22;5056859;28;45314;-42
2023/09/05 09:27:03;;;;;;;;;10.60;10.60;;;;;45.37;20.29;101170.25;5057039;28;45259;-43
2023/09/05 09:29:29;;;;;;;;;6.80;6.80;;;;;45.53;19.95;101170.97;5057264;28;45385;-47
2023/09/05 09:32:03;;;;;;;;;10.00;10.00;;;;;46.06;20.18;101168.22;5056294;28;46118;-44
2023/09/05 09:34:31;;;;;;;;;10.00;7.20;;;;;46.68;18.48;101170.72;5056868;28;45447;-45
2023/09/05 09:36:58;;;;;;;;;10.20;6.60;;;;;47.28;18.65;101166.97;5055889;28;46390;-42
2023/09/05 09:39:23;;;;;;;;;8.20;6.60;;;;;47.60;18.75;101175.75;5053764;28;45496;-43
2023/09/05 09:41:49;;;;;;;;;10.20;9.00;;;;;47.76;17.62;101173.50;5056418;28;45569;-45
2023/09/05 09:44:25;;;;;;;;;6.75;6.50;;;;;47.61;18.53;101161.25;5056995;28;45345;-42
2023/09/05 09:46:52;;;;;;;;;7.80;7.80;;;;;48.06;17.94;101156.41;5056408;28;45405;-44
2023/09/05 09:49:19;;;;;;;;;7.60;7.60;;;;;48.73;17.43;101172.06;5056929;28;45512;-43
2023/09/05 09:51:49;;;;;;;;;6.40;6.40;;;;;48.79;16.92;101172.50;5056348;28;46251;-44
2023/09/05 09:54:20;;;;;;;;;6.40;6.40;;;;;49.07;17.00;101157.66;5056817;28;45803;-42
2023/09/05 09:56:47;;;;;;;;;7.00;6.60;;;;;49.41;16.96;101153.28;5056621;28;45499;-44
2023/09/05 09:59:18;;;;;;;;;8.20;6.20;;;;;49.75;16.74;101150.03;5056731;28;45501;-42
2023/09/05 10:01:45;;;;;;;;;9.00;7.00;;;;;49.77;16.11;101158.13;5056128;28;46491;-41
2023/09/05 10:04:11;;;;;;;;;9.80;9.20;;;;;49.87;15.84;101155.31;5056438;28;45410;-42
2023/09/05 10:06:37;;;;;;;;;7.40;6.80;;;;;49.89;16.17;101149.25;5056350;28;45341;-43
2023/09/05 10:09:04;;;;;;;;;9.50;7.75;;;;;50.16;15.93;101149.59;5056832;28;45282;-44
2023/09/05 10:11:32;;;;;;;;;10.00;9.00;;;;;50.62;16.22;101146.63;5056154;28;46249;-44
2023/09/05 10:13:58;;;;;;;;;5.80;5.80;;;;;50.87;15.73;101146.50;5055937;28;45342;-44
2023/09/05 10:16:25;;;;;;;;;10.80;7.20;;;;;50.95;15.87;101147.28;5056396;28;45352;-45
2023/09/05 10:18:50;;;;;;;;;11.80;9.80;;;;;51.32;15.23;101145.78;5056102;28;45449;-43
2023/09/05 10:21:19;;;;;;;;;10.25;7.75;;;;;51.28;15.42;101142.97;5056056;28;46789;-46
2023/09/05 10:23:46;;;;;;;;;7.20;7.20;;;;;51.21;14.94;101142.25;5055940;28;45453;-44
2023/09/05 10:26:13;;;;;;;;;7.60;7.60;;;;;51.10;15.36;101139.47;5056417;28;45336;-43
2023/09/05 10:28:38;;;;;;;;;10.40;9.00;;;;;51.30;15.06;101140.53;5056344;28;45354;-45
2023/09/05 10:31:06;;;;;;;;;10.50;9.00;;;;;51.30;14.86;101142.56;5054554;28;47092;-41
2023/09/05 10:33:35;;;;;;;;;9.60;9.20;;;;;51.31;15.10;101142.16;5055478;28;45329;-44
2023/09/05 10:36:02;;;;;;;;;7.20;7.20;;;;;51.48;14.94;101143.22;5055987;28;45286;-43
2023/09/05 10:38:29;;;;;;;;;10.80;8.00;;;;;51.42;15.26;101139.22;5054881;28;45619;-44
2023/09/05 10:40:55;;;;;;;;;9.80;8.20;;;;;51.79;14.18;101132.00;5055388;28;45490;-44
2023/09/05 10:43:22;;;;;;;;;8.50;7.75;;;;;52.09;14.57;101134.16;5055511;28;46027;-46
2023/09/05 10:45:55;;;;;;;;;7.40;7.40;;;;;52.22;14.46;101126.72;5055470;28;45505;-44
2023/09/05 10:48:42;;;;;;;;;10.60;8.20;;;;;52.45;13.76;101128.03;5055218;28;45933;-44
2023/09/05 10:51:08;;;;;;;;;10.20;9.40;;;;;53.02;14.06;101122.38;5055537;28;46828;-45
2023/09/05 10:53:45;;;;;;;;;11.75;9.00;;;;;53.07;13.30;101124.72;5055533;28;45317;-43
2023/09/05 10:56:43;;;;;;;;;8.60;8.60;;;;;53.17;13.81;101127.81;5055829;28;45850;-45
2023/09/05 10:59:11;;;;;;;;;8.00;8.00;;;;;53.41;13.56;101111.59;5054353;28;45263;-42
2023/09/05 11:01:36;;;;;;;;;9.00;8.20;;;;;53.78;13.27;101117.00;5055390;28;45415;-45
2023/09/05 11:04:10;;;;;;;;;6.75;6.00;;;;;53.60;13.41;101111.63;5055541;28;45378;-45
2023/09/05 11:06:36;;;;;;;;;9.20;8.60;;;;;53.69;13.58;101124.50;5054244;28;45413;-44
2023/09/05 11:09:06;;;;;;;;;8.40;7.40;;;;;53.83;13.54;101124.22;5055651;28;45315;-46
2023/09/05 11:11:42;;;;;;;;;9.00;7.40;;;;;53.85;13.22;101116.84;5055347;28;46514;-44
2023/09/05 11:14:08;;;;;;;;;9.80;8.20;;;;;53.92;12.36;101118.78;5055515;28;45350;-43
2023/09/05 11:16:51;;;;;;;;;8.00;7.50;;;;;53.94;13.03;101126.88;5055373;28;45329;-44
2023/09/05 11:19:45;;;;;;;;;10.20;8.60;;;;;53.82;13.00;101116.94;5055442;28;45407;-41
2023/09/05 11:22:11;;;;;;;;;7.60;6.40;;;;;54.14;11.92;101119.13;5055361;28;46328;-47
2023/09/05 11:24:45;;;;;;;;;8.25;7.00;;;;;54.24;11.58;101123.03;5055113;28;45318;-43